createdAt,value
2016-10-04T00:00:02.071Z,1014.44
2016-10-04T00:00:23.780Z,1014.42
2016-10-04T00:00:45.505Z,1014.34
2016-10-04T00:01:07.216Z,1014.51
2016-10-04T00:01:28.924Z,1014.46
2016-10-04T00:01:55.412Z,1014.46
2016-10-04T00:02:17.129Z,1014.46
2016-10-04T00:02:38.844Z,1014.48
2016-10-04T00:03:03.467Z,1014.38
2016-10-04T00:03:25.176Z,1014.54
2016-10-04T00:03:46.894Z,1014.40
2016-10-04T00:04:08.607Z,1014.34
2016-10-04T00:04:30.347Z,1014.42
2016-10-04T00:04:52.053Z,1014.48
2016-10-04T00:05:13.765Z,1014.48
2016-10-04T00:05:35.496Z,1014.50
2016-10-04T00:05:57.216Z,1014.50
2016-10-04T00:06:18.935Z,1014.44
2016-10-04T00:06:40.665Z,1014.44
2016-10-04T00:07:02.378Z,1014.50
2016-10-04T00:07:24.089Z,1014.37
2016-10-04T00:07:45.814Z,1014.51
2016-10-04T00:08:07.524Z,1014.39
2016-10-04T00:08:29.233Z,1014.55
2016-10-04T00:08:50.953Z,1014.52
2016-10-04T00:09:12.669Z,1014.46
2016-10-04T00:09:34.391Z,1014.45
2016-10-04T00:09:56.106Z,1014.41
2016-10-04T00:10:17.842Z,1014.47
2016-10-04T00:10:39.555Z,1014.57
2016-10-04T00:11:01.260Z,1014.58
2016-10-04T00:11:22.974Z,1014.54
2016-10-04T00:11:44.691Z,1014.51
2016-10-04T00:12:06.401Z,1014.55
2016-10-04T00:12:28.110Z,1014.46
2016-10-04T00:12:49.835Z,1014.56
2016-10-04T00:13:11.542Z,1014.57
2016-10-04T00:13:33.248Z,1014.50
2016-10-04T00:13:54.956Z,1014.48
2016-10-04T00:14:16.671Z,1014.49
2016-10-04T00:14:38.389Z,1014.43
2016-10-04T00:15:00.105Z,1014.45
2016-10-04T00:15:21.881Z,1014.37
2016-10-04T00:15:43.590Z,1014.43
2016-10-04T00:16:05.299Z,1014.59
2016-10-04T00:16:27.009Z,1014.60
2016-10-04T00:16:48.725Z,1014.54
2016-10-04T00:17:10.432Z,1014.46
2016-10-04T00:17:32.141Z,1014.45
2016-10-04T00:17:53.862Z,1014.48
2016-10-04T00:18:15.584Z,1014.49
2016-10-04T00:18:37.294Z,1014.71
2016-10-04T00:18:59.007Z,1014.78
2016-10-04T00:19:20.721Z,1014.70
2016-10-04T00:19:42.432Z,1014.65
2016-10-04T00:20:04.141Z,1014.51
2016-10-04T00:20:25.852Z,1014.49
2016-10-04T00:20:47.565Z,1014.51
2016-10-04T00:21:09.294Z,1014.51
2016-10-04T00:21:30.998Z,1014.45
2016-10-04T00:21:52.715Z,1014.45
2016-10-04T00:22:14.432Z,1014.56
2016-10-04T00:22:36.142Z,1014.61
2016-10-04T00:22:57.862Z,1014.60
2016-10-04T00:23:19.576Z,1014.67
2016-10-04T00:23:41.282Z,1014.58
2016-10-04T00:24:02.990Z,1014.33
2016-10-04T00:24:24.720Z,1014.56
2016-10-04T00:24:46.428Z,1014.61
2016-10-04T00:25:08.140Z,1014.59
2016-10-04T00:25:29.857Z,1014.61
2016-10-04T00:25:51.570Z,1014.61
2016-10-04T00:26:13.273Z,1014.52
2016-10-04T00:26:39.754Z,1014.52
2016-10-04T00:27:33.729Z,1014.51
2016-10-04T00:27:55.436Z,1014.40
2016-10-04T00:28:17.147Z,1014.41
2016-10-04T00:28:38.849Z,1014.50
2016-10-04T00:29:00.564Z,1014.58
2016-10-04T00:29:22.272Z,1014.59
2016-10-04T00:29:43.980Z,1014.69
2016-10-04T00:30:05.695Z,1014.75
2016-10-04T00:30:27.409Z,1014.63
2016-10-04T00:30:49.136Z,1014.53
2016-10-04T00:31:10.851Z,1014.50
2016-10-04T00:31:32.568Z,1014.59
2016-10-04T00:31:54.275Z,1014.59
2016-10-04T00:32:16.007Z,1014.74
2016-10-04T00:32:37.712Z,1014.67
2016-10-04T00:32:59.425Z,1014.69
2016-10-04T00:33:21.149Z,1014.60
2016-10-04T00:33:42.860Z,1014.53
2016-10-04T00:34:04.567Z,1014.59
2016-10-04T00:34:26.284Z,1014.65
2016-10-04T00:34:47.993Z,1014.57
2016-10-04T00:35:09.701Z,1014.72
2016-10-04T00:35:31.413Z,1014.67
2016-10-04T00:35:53.144Z,1014.59
2016-10-04T00:36:14.858Z,1014.58
2016-10-04T00:36:36.573Z,1014.66
2016-10-04T00:36:58.281Z,1014.61
2016-10-04T00:37:19.995Z,1014.60
2016-10-04T00:37:41.705Z,1014.58
2016-10-04T00:38:03.415Z,1014.59
2016-10-04T00:38:25.134Z,1014.57
2016-10-04T00:38:46.846Z,1014.47
2016-10-04T00:39:08.558Z,1014.58
2016-10-04T00:39:56.756Z,1014.70
2016-10-04T00:40:18.483Z,1014.77
2016-10-04T00:40:40.192Z,1014.70
2016-10-04T00:41:01.905Z,1014.57
2016-10-04T00:41:23.611Z,1014.56
2016-10-04T00:41:45.338Z,1014.55
2016-10-04T00:42:07.046Z,1014.76
2016-10-04T00:42:29.765Z,1014.89
2016-10-04T00:42:56.250Z,1014.88
2016-10-04T00:43:24.738Z,1014.84
2016-10-04T00:43:46.446Z,1014.68
2016-10-04T00:44:08.169Z,1014.62
2016-10-04T00:44:29.882Z,1014.64
2016-10-04T00:44:54.419Z,1014.61
2016-10-04T00:45:16.140Z,1014.68
2016-10-04T00:45:37.853Z,1014.77
2016-10-04T00:45:59.581Z,1014.75
2016-10-04T00:46:21.293Z,1014.72
2016-10-04T00:46:43.005Z,1014.56
2016-10-04T00:47:04.713Z,1014.65
2016-10-04T00:47:26.428Z,1014.67
2016-10-04T00:47:48.144Z,1014.58
2016-10-04T00:48:09.853Z,1014.55
2016-10-04T00:48:31.568Z,1014.57
2016-10-04T00:48:53.270Z,1014.62
2016-10-04T00:49:14.986Z,1014.50
2016-10-04T00:49:36.698Z,1014.72
2016-10-04T00:49:58.416Z,1014.79
2016-10-04T00:50:20.130Z,1014.77
2016-10-04T00:50:41.840Z,1014.66
2016-10-04T00:51:03.545Z,1014.67
2016-10-04T00:51:25.251Z,1014.69
2016-10-04T00:51:46.966Z,1014.64
2016-10-04T00:52:08.677Z,1014.59
2016-10-04T00:52:30.393Z,1014.60
2016-10-04T00:52:52.115Z,1014.60
2016-10-04T00:53:13.820Z,1014.68
2016-10-04T00:53:35.535Z,1014.57
2016-10-04T00:53:57.249Z,1014.61
2016-10-04T00:54:18.960Z,1014.59
2016-10-04T00:54:40.668Z,1014.63
2016-10-04T00:55:02.385Z,1014.70
2016-10-04T00:55:24.096Z,1014.60
2016-10-04T00:55:45.807Z,1014.61
2016-10-04T00:56:07.516Z,1014.66
2016-10-04T00:56:29.227Z,1014.57
2016-10-04T00:56:50.937Z,1014.59
2016-10-04T00:57:12.652Z,1014.62
2016-10-04T00:57:34.374Z,1014.77
2016-10-04T00:57:56.083Z,1014.72
2016-10-04T00:58:17.803Z,1014.74
2016-10-04T00:58:39.514Z,1014.75
2016-10-04T00:59:01.224Z,1014.78
2016-10-04T00:59:22.933Z,1014.79
2016-10-04T00:59:44.643Z,1014.73
2016-10-04T01:00:06.351Z,1014.69
2016-10-04T01:00:28.060Z,1014.51
2016-10-04T01:00:49.774Z,1014.47
2016-10-04T01:01:11.487Z,1014.57
2016-10-04T01:01:33.203Z,1014.48
2016-10-04T01:01:54.919Z,1014.58
2016-10-04T01:02:16.633Z,1014.60
2016-10-04T01:02:38.342Z,1014.58
2016-10-04T01:03:00.057Z,1014.58
2016-10-04T01:03:21.773Z,1014.61
2016-10-04T01:03:43.501Z,1014.56
2016-10-04T01:04:05.195Z,1014.59
2016-10-04T01:04:26.919Z,1014.58
2016-10-04T01:04:48.621Z,1014.55
2016-10-04T01:05:10.336Z,1014.62
2016-10-04T01:05:32.057Z,1014.61
2016-10-04T01:05:53.766Z,1014.52
2016-10-04T01:06:15.471Z,1014.51
2016-10-04T01:06:37.181Z,1014.64
2016-10-04T01:06:58.896Z,1014.54
2016-10-04T01:07:20.612Z,1014.52
2016-10-04T01:07:42.330Z,1014.68
2016-10-04T01:08:04.038Z,1014.63
2016-10-04T01:08:25.747Z,1014.69
2016-10-04T01:08:47.480Z,1014.59
2016-10-04T01:09:09.184Z,1014.47
2016-10-04T01:09:30.899Z,1014.59
2016-10-04T01:09:52.607Z,1014.60
2016-10-04T01:10:14.332Z,1014.59
2016-10-04T01:10:36.050Z,1014.55
2016-10-04T01:10:57.766Z,1014.55
2016-10-04T01:11:19.474Z,1014.54
2016-10-04T01:11:41.186Z,1014.40
2016-10-04T01:12:02.895Z,1014.38
2016-10-04T01:12:24.611Z,1014.61
2016-10-04T01:12:46.323Z,1014.43
2016-10-04T01:13:08.044Z,1014.52
2016-10-04T01:13:29.759Z,1014.49
2016-10-04T01:13:51.472Z,1014.42
2016-10-04T01:14:13.187Z,1014.53
2016-10-04T01:14:34.905Z,1014.51
2016-10-04T01:14:56.611Z,1014.52
2016-10-04T01:15:18.323Z,1014.54
2016-10-04T01:15:40.045Z,1014.52
2016-10-04T01:16:01.752Z,1014.41
2016-10-04T01:16:23.462Z,1014.43
2016-10-04T01:16:45.183Z,1014.37
2016-10-04T01:17:06.889Z,1014.38
2016-10-04T01:17:28.602Z,1014.63
2016-10-04T01:17:50.320Z,1014.52
2016-10-04T01:18:12.038Z,1014.48
2016-10-04T01:18:33.747Z,1014.51
2016-10-04T01:18:55.459Z,1014.47
2016-10-04T01:19:17.174Z,1014.47
2016-10-04T01:19:38.888Z,1014.54
2016-10-04T01:20:00.595Z,1014.44
2016-10-04T01:20:22.301Z,1014.48
2016-10-04T01:20:44.009Z,1014.49
2016-10-04T01:21:05.724Z,1014.49
2016-10-04T01:21:27.436Z,1014.62
2016-10-04T01:21:49.141Z,1014.58
2016-10-04T01:22:10.851Z,1014.55
2016-10-04T01:22:32.580Z,1014.59
2016-10-04T01:22:54.284Z,1014.50
2016-10-04T01:23:16.004Z,1014.58
2016-10-04T01:23:37.709Z,1014.57
2016-10-04T01:23:59.420Z,1014.44
2016-10-04T01:24:21.133Z,1014.49
2016-10-04T01:24:42.842Z,1014.56
2016-10-04T01:25:04.556Z,1014.48
2016-10-04T01:25:26.278Z,1014.41
2016-10-04T01:25:47.989Z,1014.38
2016-10-04T01:26:09.702Z,1014.43
2016-10-04T01:26:31.426Z,1014.48
2016-10-04T01:26:53.128Z,1014.50
2016-10-04T01:27:14.839Z,1014.45
2016-10-04T01:27:36.547Z,1014.38
2016-10-04T01:27:58.272Z,1014.47
2016-10-04T01:28:19.973Z,1014.50
2016-10-04T01:28:41.691Z,1014.53
2016-10-04T01:29:03.401Z,1014.43
2016-10-04T01:29:25.110Z,1014.38
2016-10-04T01:29:46.824Z,1014.38
2016-10-04T01:30:08.528Z,1014.49
2016-10-04T01:30:30.245Z,1014.46
2016-10-04T01:30:51.958Z,1014.43
2016-10-04T01:31:13.674Z,1014.42
2016-10-04T01:31:35.404Z,1014.40
2016-10-04T01:32:23.590Z,1014.44
2016-10-04T01:32:50.095Z,1014.42
2016-10-04T01:33:11.807Z,1014.50
2016-10-04T01:33:33.520Z,1014.45
2016-10-04T01:33:55.233Z,1014.34
2016-10-04T01:34:16.943Z,1014.34
2016-10-04T01:34:38.654Z,1014.40
2016-10-04T01:35:00.361Z,1014.45
2016-10-04T01:35:22.075Z,1014.44
2016-10-04T01:36:12.800Z,1014.43
2016-10-04T01:36:34.514Z,1014.39
2016-10-04T01:36:56.223Z,1014.40
2016-10-04T01:37:17.937Z,1014.43
2016-10-04T01:37:39.653Z,1014.51
2016-10-04T01:38:27.844Z,1014.43
2016-10-04T01:38:54.337Z,1014.40
2016-10-04T01:39:16.047Z,1014.43
2016-10-04T01:39:37.754Z,1014.41
2016-10-04T01:40:08.158Z,1014.36
2016-10-04T01:40:29.872Z,1014.33
2016-10-04T01:40:51.591Z,1014.30
2016-10-04T01:41:13.308Z,1014.46
2016-10-04T01:41:35.018Z,1014.48
2016-10-04T01:41:56.726Z,1014.48
2016-10-04T01:42:18.454Z,1014.43
2016-10-04T01:42:40.178Z,1014.43
2016-10-04T01:43:01.899Z,1014.44
2016-10-04T01:43:23.609Z,1014.41
2016-10-04T01:43:46.316Z,1014.46
2016-10-04T01:44:08.032Z,1014.51
2016-10-04T01:44:29.740Z,1014.52
2016-10-04T01:44:51.459Z,1014.56
2016-10-04T01:45:13.170Z,1014.49
2016-10-04T01:45:34.885Z,1014.52
2016-10-04T01:45:56.598Z,1014.39
2016-10-04T01:46:18.304Z,1014.38
2016-10-04T01:46:40.028Z,1014.44
2016-10-04T01:47:01.736Z,1014.49
2016-10-04T01:47:23.443Z,1014.51
2016-10-04T01:47:45.173Z,1014.44
2016-10-04T01:48:06.885Z,1014.31
2016-10-04T01:48:28.608Z,1014.47
2016-10-04T01:48:50.332Z,1014.45
2016-10-04T01:49:12.053Z,1014.30
2016-10-04T01:49:33.768Z,1014.40
2016-10-04T01:49:55.515Z,1014.47
2016-10-04T01:50:17.237Z,1014.37
2016-10-04T01:50:38.958Z,1014.38
2016-10-04T01:51:00.679Z,1014.54
2016-10-04T01:51:22.406Z,1014.54
2016-10-04T01:51:44.128Z,1014.50
2016-10-04T01:52:05.843Z,1014.45
2016-10-04T01:52:27.561Z,1014.41
2016-10-04T01:52:54.045Z,1014.47
2016-10-04T01:53:15.756Z,1014.57
2016-10-04T01:53:37.470Z,1014.41
2016-10-04T01:53:59.178Z,1014.49
2016-10-04T01:54:20.893Z,1014.47
2016-10-04T01:54:47.378Z,1014.38
2016-10-04T01:55:09.082Z,1014.29
2016-10-04T01:55:30.801Z,1014.40
2016-10-04T01:55:52.513Z,1014.36
2016-10-04T01:56:45.492Z,1014.44
2016-10-04T01:57:07.222Z,1014.45
2016-10-04T01:57:28.933Z,1014.47
2016-10-04T01:57:50.642Z,1014.45
2016-10-04T01:58:12.373Z,1014.46
2016-10-04T01:58:34.078Z,1014.53
2016-10-04T01:58:55.793Z,1014.55
2016-10-04T01:59:17.506Z,1014.54
2016-10-04T01:59:39.221Z,1014.46
2016-10-04T02:00:00.952Z,1014.57
2016-10-04T02:00:22.691Z,1014.54
2016-10-04T02:00:44.414Z,1014.47
2016-10-04T02:01:06.130Z,1014.44
2016-10-04T02:01:27.835Z,1014.36
2016-10-04T02:01:49.554Z,1014.32
2016-10-04T02:02:16.040Z,1014.38
2016-10-04T02:02:37.764Z,1014.65
2016-10-04T02:02:59.471Z,1014.57
2016-10-04T02:03:21.182Z,1014.46
2016-10-04T02:03:42.901Z,1014.39
2016-10-04T02:04:04.597Z,1014.36
2016-10-04T02:04:26.308Z,1014.34
2016-10-04T02:04:48.023Z,1014.44
2016-10-04T02:05:09.729Z,1014.42
2016-10-04T02:05:31.440Z,1014.37
2016-10-04T02:05:53.153Z,1014.50
2016-10-04T02:06:14.868Z,1014.58
2016-10-04T02:06:36.584Z,1014.51
2016-10-04T02:06:58.295Z,1014.45
2016-10-04T02:07:27.396Z,1014.44
2016-10-04T02:07:49.665Z,1014.35
2016-10-04T02:08:11.380Z,1014.52
2016-10-04T02:08:33.083Z,1014.46
2016-10-04T02:08:54.797Z,1014.48
2016-10-04T02:09:16.512Z,1014.43
2016-10-04T02:09:38.221Z,1014.32
2016-10-04T02:09:59.930Z,1014.45
2016-10-04T02:10:21.641Z,1014.42
2016-10-04T02:10:43.358Z,1014.42
2016-10-04T02:11:05.073Z,1014.44
2016-10-04T02:11:26.785Z,1014.41
2016-10-04T02:11:48.498Z,1014.34
2016-10-04T02:12:10.209Z,1014.38
2016-10-04T02:12:31.920Z,1014.37
2016-10-04T02:12:53.638Z,1014.50
2016-10-04T02:13:15.351Z,1014.44
2016-10-04T02:13:37.066Z,1014.47
2016-10-04T02:13:58.781Z,1014.44
2016-10-04T02:14:20.493Z,1014.52
2016-10-04T02:14:43.211Z,1014.57
2016-10-04T02:15:05.923Z,1014.53
2016-10-04T02:15:27.634Z,1014.56
2016-10-04T02:15:49.353Z,1014.53
2016-10-04T02:16:15.853Z,1014.48
2016-10-04T02:16:37.565Z,1014.46
2016-10-04T02:16:59.285Z,1014.49
2016-10-04T02:17:25.776Z,1014.45
2016-10-04T02:17:47.501Z,1014.35
2016-10-04T02:18:09.218Z,1014.31
2016-10-04T02:18:30.927Z,1014.35
2016-10-04T02:18:52.634Z,1014.35
2016-10-04T02:19:14.348Z,1014.32
2016-10-04T02:19:36.069Z,1014.46
2016-10-04T02:19:57.781Z,1014.40
2016-10-04T02:20:19.495Z,1014.45
2016-10-04T02:20:41.209Z,1014.50
2016-10-04T02:21:02.919Z,1014.38
2016-10-04T02:21:24.631Z,1014.46
2016-10-04T02:21:46.347Z,1014.38
2016-10-04T02:22:08.061Z,1014.47
2016-10-04T02:22:29.771Z,1014.51
2016-10-04T02:22:51.493Z,1014.45
2016-10-04T02:23:13.205Z,1014.39
2016-10-04T02:23:34.918Z,1014.31
2016-10-04T02:23:56.619Z,1014.34
2016-10-04T02:24:18.344Z,1014.31
2016-10-04T02:24:40.063Z,1014.39
2016-10-04T02:25:01.765Z,1014.34
2016-10-04T02:25:23.475Z,1014.29
2016-10-04T02:25:45.179Z,1014.32
2016-10-04T02:26:06.897Z,1014.46
2016-10-04T02:26:28.599Z,1014.47
2016-10-04T02:26:50.317Z,1014.47
2016-10-04T02:27:12.029Z,1014.47
2016-10-04T02:27:33.742Z,1014.43
2016-10-04T02:27:55.451Z,1014.30
2016-10-04T02:28:17.163Z,1014.49
2016-10-04T02:28:38.881Z,1014.44
2016-10-04T02:29:00.589Z,1014.27
2016-10-04T02:29:22.308Z,1014.37
2016-10-04T02:29:44.015Z,1014.31
2016-10-04T02:30:05.744Z,1014.51
2016-10-04T02:30:27.467Z,1014.49
2016-10-04T02:30:49.170Z,1014.40
2016-10-04T02:31:10.879Z,1014.28
2016-10-04T02:31:32.587Z,1014.38
2016-10-04T02:31:54.299Z,1014.31
2016-10-04T02:32:16.013Z,1014.35
2016-10-04T02:32:37.730Z,1014.32
2016-10-04T02:32:59.437Z,1014.39
2016-10-04T02:33:21.151Z,1014.41
2016-10-04T02:33:42.880Z,1014.43
2016-10-04T02:34:04.649Z,1014.36
2016-10-04T02:34:26.348Z,1014.38
2016-10-04T02:34:48.067Z,1014.47
2016-10-04T02:35:09.779Z,1014.43
2016-10-04T02:35:31.490Z,1014.64
2016-10-04T02:35:53.195Z,1014.51
2016-10-04T02:36:14.914Z,1014.46
2016-10-04T02:36:36.631Z,1014.52
2016-10-04T02:36:58.340Z,1014.48
2016-10-04T02:37:20.057Z,1014.69
2016-10-04T02:37:41.766Z,1014.68
2016-10-04T02:38:03.475Z,1014.55
2016-10-04T02:38:25.185Z,1014.52
2016-10-04T02:38:46.907Z,1014.48
2016-10-04T02:39:08.619Z,1014.54
2016-10-04T02:39:30.331Z,1014.49
2016-10-04T02:39:52.045Z,1014.43
2016-10-04T02:40:13.753Z,1014.49
2016-10-04T02:40:35.472Z,1014.52
2016-10-04T02:40:57.181Z,1014.55
2016-10-04T02:41:18.900Z,1014.59
2016-10-04T02:41:40.609Z,1014.57
2016-10-04T02:42:02.317Z,1014.55
2016-10-04T02:42:24.025Z,1014.50
2016-10-04T02:43:12.750Z,1014.43
2016-10-04T02:43:34.465Z,1014.48
2016-10-04T02:43:56.169Z,1014.43
2016-10-04T02:44:17.894Z,1014.49
2016-10-04T02:44:39.602Z,1014.57
2016-10-04T02:45:01.311Z,1014.56
2016-10-04T02:45:23.015Z,1014.64
2016-10-04T02:45:44.733Z,1014.71
2016-10-04T02:46:06.444Z,1014.69
2016-10-04T02:46:28.157Z,1014.70
2016-10-04T02:46:49.868Z,1014.69
2016-10-04T02:47:11.583Z,1014.55
2016-10-04T02:47:35.941Z,1014.64
2016-10-04T02:47:57.649Z,1014.65
2016-10-04T02:48:19.365Z,1014.71
2016-10-04T02:48:41.072Z,1014.72
2016-10-04T02:49:02.784Z,1014.63
2016-10-04T02:49:24.492Z,1014.58
2016-10-04T02:49:46.197Z,1014.48
2016-10-04T02:50:07.910Z,1014.55
2016-10-04T02:50:29.620Z,1014.50
2016-10-04T02:50:51.325Z,1014.75
2016-10-04T02:51:13.033Z,1014.71
2016-10-04T02:51:34.741Z,1014.71
2016-10-04T02:51:56.468Z,1014.66
2016-10-04T02:52:18.178Z,1014.53
2016-10-04T02:52:39.885Z,1014.54
2016-10-04T02:53:01.598Z,1014.58
2016-10-04T02:53:28.085Z,1014.51
2016-10-04T02:53:49.797Z,1014.64
2016-10-04T02:54:11.509Z,1014.56
2016-10-04T02:54:33.222Z,1014.71
2016-10-04T02:54:54.938Z,1014.71
2016-10-04T02:55:16.652Z,1014.71
2016-10-04T02:55:38.364Z,1014.86
2016-10-04T02:56:00.077Z,1014.79
2016-10-04T02:56:21.785Z,1014.68
2016-10-04T02:56:43.491Z,1014.67
2016-10-04T02:57:05.202Z,1014.65
2016-10-04T02:57:26.911Z,1014.75
2016-10-04T02:57:48.619Z,1014.67
2016-10-04T02:58:10.329Z,1014.57
2016-10-04T02:58:32.038Z,1014.52
2016-10-04T02:58:53.753Z,1014.56
2016-10-04T02:59:38.468Z,1014.68
2016-10-04T03:00:00.179Z,1014.65
2016-10-04T03:00:21.890Z,1014.67
2016-10-04T03:00:43.599Z,1014.75
2016-10-04T03:01:05.308Z,1014.66
2016-10-04T03:01:27.015Z,1014.54
2016-10-04T03:01:48.722Z,1014.65
2016-10-04T03:02:10.426Z,1014.72
2016-10-04T03:02:32.135Z,1014.66
2016-10-04T03:02:53.842Z,1014.58
2016-10-04T03:03:15.553Z,1014.52
2016-10-04T03:03:37.261Z,1014.72
2016-10-04T03:03:58.971Z,1014.63
2016-10-04T03:04:20.676Z,1014.69
2016-10-04T03:04:42.395Z,1014.71
2016-10-04T03:05:04.105Z,1014.74
2016-10-04T03:05:25.818Z,1014.71
2016-10-04T03:05:47.536Z,1014.74
2016-10-04T03:06:09.246Z,1014.62
2016-10-04T03:06:30.964Z,1014.75
2016-10-04T03:06:52.676Z,1014.82
2016-10-04T03:07:14.390Z,1014.77
2016-10-04T03:07:36.107Z,1014.74
2016-10-04T03:07:57.806Z,1014.66
2016-10-04T03:08:19.526Z,1014.67
2016-10-04T03:08:41.235Z,1014.71
2016-10-04T03:09:02.939Z,1014.67
2016-10-04T03:09:24.652Z,1014.62
2016-10-04T03:09:46.370Z,1014.65
2016-10-04T03:10:08.086Z,1014.71
2016-10-04T03:10:29.794Z,1014.76
2016-10-04T03:10:51.508Z,1014.67
2016-10-04T03:11:13.213Z,1014.72
2016-10-04T03:11:34.929Z,1014.60
2016-10-04T03:11:56.640Z,1014.70
2016-10-04T03:12:18.350Z,1014.68
2016-10-04T03:12:40.061Z,1014.66
2016-10-04T03:13:01.781Z,1014.72
2016-10-04T03:13:23.492Z,1014.69
2016-10-04T03:13:45.202Z,1014.61
2016-10-04T03:14:06.914Z,1014.69
2016-10-04T03:14:28.622Z,1014.74
2016-10-04T03:14:50.338Z,1014.75
2016-10-04T03:15:12.046Z,1014.76
2016-10-04T03:15:33.774Z,1014.71
2016-10-04T03:15:55.490Z,1014.69
2016-10-04T03:16:17.213Z,1014.72
2016-10-04T03:16:38.918Z,1014.68
2016-10-04T03:17:00.628Z,1014.73
2016-10-04T03:17:22.345Z,1014.73
2016-10-04T03:17:44.051Z,1014.77
2016-10-04T03:18:05.775Z,1014.78
2016-10-04T03:18:27.484Z,1014.72
2016-10-04T03:18:49.203Z,1014.73
2016-10-04T03:19:10.913Z,1014.64
2016-10-04T03:19:32.623Z,1014.67
2016-10-04T03:19:54.332Z,1014.77
2016-10-04T03:20:16.044Z,1014.71
2016-10-04T03:20:37.759Z,1014.71
2016-10-04T03:20:59.476Z,1014.76
2016-10-04T03:21:21.185Z,1014.77
2016-10-04T03:21:42.906Z,1014.73
2016-10-04T03:22:04.623Z,1014.72
2016-10-04T03:22:26.333Z,1014.64
2016-10-04T03:23:14.524Z,1014.78
2016-10-04T03:23:36.237Z,1014.76
2016-10-04T03:23:57.954Z,1014.90
2016-10-04T03:24:19.673Z,1014.69
2016-10-04T03:24:41.382Z,1014.74
2016-10-04T03:25:03.088Z,1014.68
2016-10-04T03:25:24.800Z,1014.67
2016-10-04T03:25:46.508Z,1014.73
2016-10-04T03:26:08.218Z,1014.67
2016-10-04T03:26:29.935Z,1014.78
2016-10-04T03:26:51.645Z,1014.81
2016-10-04T03:27:13.371Z,1014.85
2016-10-04T03:27:35.086Z,1014.94
2016-10-04T03:27:56.799Z,1014.85
2016-10-04T03:28:18.525Z,1014.87
2016-10-04T03:28:40.232Z,1014.79
2016-10-04T03:29:01.938Z,1014.81
2016-10-04T03:29:23.654Z,1014.71
2016-10-04T03:29:45.368Z,1014.68
2016-10-04T03:30:07.077Z,1014.64
2016-10-04T03:30:28.792Z,1014.87
2016-10-04T03:30:50.512Z,1014.82
2016-10-04T03:31:12.222Z,1014.72
2016-10-04T03:31:33.929Z,1014.80
2016-10-04T03:31:55.643Z,1014.87
2016-10-04T03:32:17.351Z,1014.72
2016-10-04T03:32:39.065Z,1014.76
2016-10-04T03:33:00.770Z,1014.82
2016-10-04T03:33:22.480Z,1014.79
2016-10-04T03:33:44.204Z,1014.84
2016-10-04T03:34:10.683Z,1014.92
2016-10-04T03:34:32.406Z,1014.83
2016-10-04T03:34:54.119Z,1014.84
2016-10-04T03:35:15.844Z,1014.74
2016-10-04T03:35:37.552Z,1014.93
2016-10-04T03:35:59.268Z,1015.02
2016-10-04T03:36:20.978Z,1014.94
2016-10-04T03:36:52.243Z,1014.85
2016-10-04T03:37:13.946Z,1014.76
2016-10-04T03:37:35.657Z,1014.85
2016-10-04T03:37:57.382Z,1014.82
2016-10-04T03:38:19.091Z,1014.93
2016-10-04T03:38:40.808Z,1014.86
2016-10-04T03:39:02.534Z,1014.76
2016-10-04T03:39:24.245Z,1014.77
2016-10-04T03:39:45.964Z,1014.75
2016-10-04T03:40:07.674Z,1014.82
2016-10-04T03:40:29.389Z,1014.84
2016-10-04T03:40:51.101Z,1014.82
2016-10-04T03:41:12.812Z,1014.87
2016-10-04T03:41:34.539Z,1014.83
2016-10-04T03:41:56.250Z,1014.74
2016-10-04T03:42:17.954Z,1014.84
2016-10-04T03:42:39.659Z,1014.82
2016-10-04T03:43:01.373Z,1014.76
2016-10-04T03:43:23.087Z,1014.85
2016-10-04T03:43:44.797Z,1014.81
2016-10-04T03:44:06.517Z,1014.75
2016-10-04T03:44:28.229Z,1014.80
2016-10-04T03:44:49.945Z,1014.86
2016-10-04T03:45:16.427Z,1014.82
2016-10-04T03:45:38.143Z,1014.75
2016-10-04T03:45:59.850Z,1014.90
2016-10-04T03:46:21.559Z,1014.85
2016-10-04T03:46:43.269Z,1014.91
2016-10-04T03:47:04.987Z,1014.90
2016-10-04T03:47:26.701Z,1014.96
2016-10-04T03:47:48.416Z,1015.13
2016-10-04T03:48:10.129Z,1015.07
2016-10-04T03:48:31.850Z,1014.91
2016-10-04T03:48:53.557Z,1014.88
2016-10-04T03:49:15.271Z,1014.80
2016-10-04T03:49:36.988Z,1014.76
2016-10-04T03:49:58.705Z,1014.79
2016-10-04T03:50:20.416Z,1014.87
2016-10-04T03:51:13.395Z,1014.98
2016-10-04T03:51:35.106Z,1015.04
2016-10-04T03:51:56.823Z,1015.13
2016-10-04T03:52:18.542Z,1015.06
2016-10-04T03:52:40.252Z,1015.06
2016-10-04T03:53:01.970Z,1015.02
2016-10-04T03:53:23.683Z,1014.96
2016-10-04T03:53:45.411Z,1014.91
2016-10-04T03:54:07.122Z,1014.87
2016-10-04T03:54:28.836Z,1014.96
2016-10-04T03:54:50.555Z,1015.05
2016-10-04T03:55:12.271Z,1015.00
2016-10-04T03:55:33.994Z,1014.97
2016-10-04T03:55:55.709Z,1015.02
2016-10-04T03:56:17.431Z,1015.01
2016-10-04T03:56:40.140Z,1014.98
2016-10-04T03:57:01.861Z,1014.88
2016-10-04T03:57:23.577Z,1014.85
2016-10-04T03:57:45.284Z,1014.94
2016-10-04T03:58:06.994Z,1015.00
2016-10-04T03:58:28.710Z,1014.99
2016-10-04T03:58:50.419Z,1014.99
2016-10-04T03:59:12.125Z,1014.93
2016-10-04T03:59:33.847Z,1015.00
2016-10-04T03:59:55.565Z,1014.94
2016-10-04T04:00:17.270Z,1014.93
2016-10-04T04:00:38.996Z,1015.05
2016-10-04T04:01:00.708Z,1014.99
2016-10-04T04:01:22.414Z,1014.99
2016-10-04T04:01:44.129Z,1014.95
2016-10-04T04:02:05.855Z,1014.92
2016-10-04T04:02:27.568Z,1014.95
2016-10-04T04:02:49.290Z,1014.98
2016-10-04T04:03:11.020Z,1014.98
2016-10-04T04:03:32.730Z,1014.97
2016-10-04T04:03:54.436Z,1014.85
2016-10-04T04:04:16.150Z,1014.99
2016-10-04T04:04:37.860Z,1015.02
2016-10-04T04:04:59.569Z,1015.09
2016-10-04T04:05:21.285Z,1014.93
2016-10-04T04:05:43.002Z,1014.90
2016-10-04T04:06:04.716Z,1014.87
2016-10-04T04:06:26.420Z,1014.89
2016-10-04T04:06:48.133Z,1014.85
2016-10-04T04:07:09.847Z,1014.91
2016-10-04T04:07:31.564Z,1014.89
2016-10-04T04:07:53.274Z,1014.92
2016-10-04T04:08:15.000Z,1014.84
2016-10-04T04:08:36.713Z,1014.88
2016-10-04T04:08:58.420Z,1014.89
2016-10-04T04:09:20.133Z,1014.81
2016-10-04T04:09:41.849Z,1014.97
2016-10-04T04:10:03.567Z,1014.95
2016-10-04T04:10:25.272Z,1014.87
2016-10-04T04:10:49.396Z,1014.83
2016-10-04T04:11:11.106Z,1014.96
2016-10-04T04:11:32.815Z,1014.96
2016-10-04T04:11:54.528Z,1015.06
2016-10-04T04:12:16.239Z,1014.97
2016-10-04T04:12:37.953Z,1014.94
2016-10-04T04:12:59.661Z,1014.94
2016-10-04T04:13:21.373Z,1014.88
2016-10-04T04:13:43.082Z,1014.91
2016-10-04T04:14:04.792Z,1014.96
2016-10-04T04:14:26.498Z,1015.00
2016-10-04T04:14:48.207Z,1014.88
2016-10-04T04:15:09.925Z,1014.89
2016-10-04T04:15:31.641Z,1014.71
2016-10-04T04:15:53.357Z,1014.83
2016-10-04T04:16:15.064Z,1014.92
2016-10-04T04:16:36.775Z,1014.90
2016-10-04T04:16:58.630Z,1014.82
2016-10-04T04:17:20.335Z,1014.92
2016-10-04T04:17:42.047Z,1014.98
2016-10-04T04:18:03.751Z,1014.91
2016-10-04T04:18:25.471Z,1015.02
2016-10-04T04:18:47.180Z,1015.07
2016-10-04T04:19:08.898Z,1015.08
2016-10-04T04:19:30.607Z,1014.96
2016-10-04T04:19:52.319Z,1014.92
2016-10-04T04:20:14.028Z,1014.95
2016-10-04T04:20:35.745Z,1014.96
2016-10-04T04:20:57.483Z,1015.01
2016-10-04T04:21:19.191Z,1015.12
2016-10-04T04:21:40.896Z,1015.08
2016-10-04T04:22:02.617Z,1015.15
2016-10-04T04:22:24.332Z,1015.06
2016-10-04T04:22:46.041Z,1015.03
2016-10-04T04:23:07.756Z,1015.00
2016-10-04T04:23:29.471Z,1014.97
2016-10-04T04:23:51.188Z,1015.00
2016-10-04T04:24:12.893Z,1014.94
2016-10-04T04:24:34.615Z,1014.84
2016-10-04T04:24:56.324Z,1014.99
2016-10-04T04:25:22.812Z,1014.96
2016-10-04T04:25:44.526Z,1015.10
2016-10-04T04:26:06.246Z,1015.11
2016-10-04T04:26:27.958Z,1015.11
2016-10-04T04:26:49.667Z,1014.96
2016-10-04T04:27:11.375Z,1014.98
2016-10-04T04:27:33.090Z,1015.07
2016-10-04T04:27:54.813Z,1015.00
2016-10-04T04:28:16.521Z,1014.98
2016-10-04T04:28:43.019Z,1014.98
2016-10-04T04:29:04.727Z,1014.94